createdAt,value
2022-11-17T00:01:19.544Z,0.48
2022-11-17T00:03:47.500Z,0.49
2022-11-17T00:06:14.284Z,0.49
2022-11-17T00:08:40.991Z,0.48
2022-11-17T00:11:07.766Z,0.47
2022-11-17T00:13:53.132Z,0.46
2022-11-17T00:16:20.445Z,0.44
2022-11-17T00:19:05.933Z,0.43
2022-11-17T00:21:32.833Z,0.41
2022-11-17T00:23:59.513Z,0.40
2022-11-17T00:26:27.886Z,0.37
2022-11-17T00:28:59.239Z,0.33
2022-11-17T00:32:02.904Z,0.31
2022-11-17T00:34:29.687Z,0.29
2022-11-17T00:36:56.374Z,0.27
2022-11-17T00:39:23.804Z,0.25
2022-11-17T00:41:50.746Z,0.23
2022-11-17T00:44:17.633Z,0.22
2022-11-17T00:46:44.345Z,0.21
2022-11-17T00:49:11.347Z,0.22
2022-11-17T00:51:38.184Z,0.22
2022-11-17T00:54:04.985Z,0.22
2022-11-17T00:56:31.727Z,0.20
2022-11-17T00:58:58.608Z,0.20
2022-11-17T01:01:25.458Z,0.18
2022-11-17T01:04:02.931Z,0.15
2022-11-17T01:06:40.705Z,0.14
2022-11-17T01:09:21.831Z,0.12
2022-11-17T01:11:49.547Z,0.11
2022-11-17T01:14:18.499Z,0.14
2022-11-17T01:16:45.319Z,0.14
2022-11-17T01:19:12.319Z,0.15
2022-11-17T01:21:39.070Z,0.16
2022-11-17T01:24:06.055Z,0.16
2022-11-17T01:26:34.593Z,0.16
2022-11-17T01:31:44.020Z,0.17
2022-11-17T01:34:10.998Z,0.14
2022-11-17T01:36:58.762Z,0.14
2022-11-17T01:39:26.270Z,0.13
2022-11-17T01:41:53.442Z,0.10
2022-11-17T01:44:41.771Z,0.08
2022-11-17T01:47:14.110Z,0.04
2022-11-17T01:49:40.867Z,0.03
2022-11-17T01:52:07.940Z,0.03
2022-11-17T01:54:35.638Z,0.03
2022-11-17T01:57:05.119Z,0.03
2022-11-17T01:59:37.615Z,0.04
2022-11-17T02:02:04.541Z,0.06
2022-11-17T02:04:40.658Z,0.05
2022-11-17T02:07:20.267Z,0.02
2022-11-17T02:09:47.038Z,0.00
2022-11-17T02:12:13.831Z,-0.02
2022-11-17T02:14:40.622Z,-0.03
2022-11-17T02:17:13.752Z,-0.04
2022-11-17T02:19:42.038Z,-0.05
2022-11-17T02:22:40.013Z,-0.05
2022-11-17T02:25:28.733Z,-0.06
2022-11-17T02:28:34.390Z,-0.06
2022-11-17T02:31:25.601Z,-0.08
2022-11-17T02:34:13.661Z,-0.10
2022-11-17T02:36:57.076Z,-0.13
2022-11-17T02:39:44.439Z,-0.18
2022-11-17T02:42:16.620Z,-0.21
2022-11-17T02:44:48.097Z,-0.23
2022-11-17T02:47:23.951Z,-0.26
2022-11-17T02:49:53.860Z,-0.29
2022-11-17T02:52:20.614Z,-0.31
2022-11-17T02:54:47.375Z,-0.32
2022-11-17T02:57:30.253Z,-0.31
2022-11-17T03:00:01.858Z,-0.29
2022-11-17T03:03:00.450Z,-0.30
2022-11-17T03:05:36.740Z,-0.32
2022-11-17T03:08:41.013Z,-0.33
2022-11-17T03:11:07.936Z,-0.34
2022-11-17T03:14:05.424Z,-0.34
2022-11-17T03:16:37.300Z,-0.36
2022-11-17T03:19:27.446Z,-0.37
2022-11-17T03:22:03.849Z,-0.37
2022-11-17T03:24:33.651Z,-0.37
2022-11-17T03:27:21.991Z,-0.38
2022-11-17T03:29:50.682Z,-0.39
2022-11-17T03:32:17.387Z,-0.38
2022-11-17T03:35:01.545Z,-0.37
2022-11-17T03:37:29.215Z,-0.39
2022-11-17T03:39:59.824Z,-0.41
2022-11-17T03:42:29.104Z,-0.41
2022-11-17T03:45:02.327Z,-0.42
2022-11-17T03:47:29.092Z,-0.44
2022-11-17T03:50:14.275Z,-0.45
2022-11-17T03:52:41.096Z,-0.48
2022-11-17T03:55:08.015Z,-0.52
2022-11-17T03:57:36.829Z,-0.53
2022-11-17T04:00:08.275Z,-0.55
2022-11-17T04:02:42.075Z,-0.57
2022-11-17T04:05:09.644Z,-0.57
2022-11-17T04:07:40.477Z,-0.57
2022-11-17T04:10:09.278Z,-0.57
2022-11-17T04:12:54.589Z,-0.58
2022-11-17T04:15:39.925Z,-0.59
2022-11-17T04:18:06.654Z,-0.61
2022-11-17T04:20:36.231Z,-0.66
2022-11-17T04:23:07.290Z,-0.67
2022-11-17T04:25:53.716Z,-0.62
2022-11-17T04:28:38.867Z,-0.64
2022-11-17T04:31:13.120Z,-0.66
2022-11-17T04:33:41.971Z,-0.66
2022-11-17T04:36:09.625Z,-0.66
2022-11-17T04:38:36.501Z,-0.66
2022-11-17T04:41:23.112Z,-0.66
2022-11-17T04:43:50.289Z,-0.69
2022-11-17T04:46:17.522Z,-0.66
2022-11-17T04:48:44.518Z,-0.68
2022-11-17T04:51:11.620Z,-0.71
2022-11-17T04:53:38.422Z,-0.73
2022-11-17T04:56:05.242Z,-0.75
2022-11-17T04:58:31.970Z,-0.76
2022-11-17T05:01:12.479Z,-0.77
2022-11-17T05:03:39.215Z,-0.78
2022-11-17T05:06:05.963Z,-0.78
2022-11-17T05:08:32.711Z,-0.77
2022-11-17T05:11:18.368Z,-0.76
2022-11-17T05:13:45.156Z,-0.74
2022-11-17T05:16:30.514Z,-0.77
2022-11-17T05:18:57.258Z,-0.79
2022-11-17T05:21:24.065Z,-0.80
2022-11-17T05:23:56.460Z,-0.82
2022-11-17T05:26:27.990Z,-0.82
2022-11-17T05:28:55.421Z,-0.82
2022-11-17T05:31:22.562Z,-0.84
2022-11-17T05:33:49.349Z,-0.85
2022-11-17T05:36:16.103Z,-0.86
2022-11-17T05:38:42.939Z,-0.92
2022-11-17T05:41:09.667Z,-0.89
2022-11-17T05:43:36.748Z,-0.91
2022-11-17T05:46:03.840Z,-0.91
2022-11-17T05:48:30.656Z,-0.90
2022-11-17T05:50:57.525Z,-0.88
2022-11-17T05:53:24.325Z,-0.92
2022-11-17T05:55:51.233Z,-0.88
2022-11-17T05:58:19.632Z,-0.90
2022-11-17T06:00:46.397Z,-0.89
2022-11-17T06:03:16.849Z,-0.90
2022-11-17T06:05:43.720Z,-0.92
2022-11-17T06:08:10.621Z,-0.93
2022-11-17T06:10:37.486Z,-0.95
2022-11-17T06:13:04.179Z,-0.98
2022-11-17T06:15:30.977Z,-1.01
2022-11-17T06:18:02.010Z,-1.04
2022-11-17T06:20:34.462Z,-1.06
2022-11-17T06:23:02.762Z,-1.09
2022-11-17T06:25:29.599Z,-1.12
2022-11-17T06:27:56.237Z,-1.15
2022-11-17T06:30:23.013Z,-1.17
2022-11-17T06:32:50.101Z,-1.19
2022-11-17T06:35:16.957Z,-1.19
2022-11-17T06:37:43.806Z,-1.20
2022-11-17T06:40:11.686Z,-1.21
2022-11-17T06:43:00.520Z,-1.20
2022-11-17T06:45:27.400Z,-1.21
2022-11-17T06:47:54.078Z,-1.21
2022-11-17T06:50:20.926Z,-1.22
2022-11-17T06:52:47.608Z,-1.23
2022-11-17T06:55:14.425Z,-1.24
2022-11-17T06:57:41.156Z,-1.25
2022-11-17T07:00:08.607Z,-1.33
2022-11-17T07:02:36.704Z,-1.34
2022-11-17T07:05:04.280Z,-1.30
2022-11-17T07:07:31.060Z,-1.34
2022-11-17T07:09:57.738Z,-1.32
2022-11-17T07:12:24.467Z,-1.35
2022-11-17T07:14:51.312Z,-1.34
2022-11-17T07:17:17.940Z,-1.33
2022-11-17T07:19:44.705Z,-1.33
2022-11-17T07:22:11.347Z,-1.32
2022-11-17T07:24:38.087Z,-1.31
2022-11-17T07:27:06.486Z,-1.33
2022-11-17T07:29:33.304Z,-1.34
2022-11-17T07:31:59.933Z,-1.34
2022-11-17T07:34:26.653Z,-1.35
2022-11-17T07:36:53.392Z,-1.34
2022-11-17T07:39:21.908Z,-1.32
2022-11-17T07:41:48.835Z,-1.33
2022-11-17T07:44:15.543Z,-1.34
2022-11-17T07:46:42.296Z,-1.35
2022-11-17T07:49:08.998Z,-1.35
2022-11-17T07:51:35.701Z,-1.40
2022-11-17T07:54:02.324Z,-1.35
2022-11-17T07:56:29.104Z,-1.34
2022-11-17T07:58:55.769Z,-1.32
2022-11-17T08:01:22.546Z,-1.31
2022-11-17T08:03:49.297Z,-1.29
2022-11-17T08:06:16.920Z,-1.27
2022-11-17T08:08:43.684Z,-1.26
2022-11-17T08:11:11.627Z,-1.24
2022-11-17T08:13:39.600Z,-1.22
2022-11-17T08:16:07.021Z,-1.19
2022-11-17T08:18:34.087Z,-1.20
2022-11-17T08:21:06.122Z,-1.15
2022-11-17T08:23:33.000Z,-1.15
2022-11-17T08:25:59.946Z,-1.14
2022-11-17T08:28:26.708Z,-1.12
2022-11-17T08:30:53.893Z,-1.12
2022-11-17T08:33:20.641Z,-1.09
2022-11-17T08:35:47.415Z,-1.07
2022-11-17T08:38:15.470Z,-1.08
2022-11-17T08:40:42.268Z,-1.10
2022-11-17T08:43:08.965Z,-1.12
2022-11-17T08:45:35.686Z,-1.13
2022-11-17T08:48:02.350Z,-1.17
2022-11-17T08:50:29.071Z,-1.13
2022-11-17T08:52:55.866Z,-1.15
2022-11-17T08:55:22.581Z,-1.17
2022-11-17T08:57:49.390Z,-1.21
2022-11-17T09:00:16.536Z,-1.23
2022-11-17T09:02:43.254Z,-1.24
2022-11-17T09:05:10.095Z,-1.25
2022-11-17T09:07:36.831Z,-1.26
2022-11-17T09:10:04.366Z,-1.24
2022-11-17T09:12:31.207Z,-1.23
2022-11-17T09:14:57.865Z,-1.19
2022-11-17T09:17:24.583Z,-1.22
2022-11-17T09:19:51.313Z,-1.14
2022-11-17T09:22:18.083Z,-1.13
2022-11-17T09:24:44.819Z,-1.11
2022-11-17T09:27:11.595Z,-1.10
2022-11-17T09:29:38.345Z,-1.08
2022-11-17T09:32:05.221Z,-1.07
2022-11-17T09:34:31.868Z,-1.09
2022-11-17T09:36:58.600Z,-1.09
2022-11-17T09:39:25.349Z,-1.09
2022-11-17T09:41:53.039Z,-1.09
2022-11-17T09:44:28.826Z,-1.14
2022-11-17T09:47:19.269Z,-1.08
2022-11-17T09:50:12.860Z,-1.07
2022-11-17T09:52:54.966Z,-1.09
2022-11-17T09:55:28.423Z,-1.14
2022-11-17T09:58:08.840Z,-1.09
2022-11-17T10:00:35.627Z,-1.08
2022-11-17T10:03:02.374Z,-1.08
2022-11-17T10:05:30.694Z,-1.08
2022-11-17T10:08:00.587Z,-1.10
2022-11-17T10:10:39.775Z,-1.12
2022-11-17T10:13:09.823Z,-1.13
2022-11-17T10:15:47.461Z,-1.12
2022-11-17T10:18:14.918Z,-1.10
2022-11-17T10:20:42.415Z,-1.11
2022-11-17T10:23:17.847Z,-1.12
2022-11-17T10:25:46.270Z,-1.11
2022-11-17T10:28:27.460Z,-1.10
2022-11-17T10:31:02.048Z,-1.08
2022-11-17T10:33:48.911Z,-1.07
2022-11-17T10:36:30.921Z,-1.09
2022-11-17T10:38:59.186Z,-1.10
2022-11-17T10:41:29.115Z,-1.12
2022-11-17T10:44:02.510Z,-1.14
2022-11-17T10:46:38.222Z,-1.16
2022-11-17T10:49:23.804Z,-1.18
2022-11-17T10:52:03.966Z,-1.20
2022-11-17T10:54:30.746Z,-1.20
2022-11-17T10:56:58.396Z,-1.20
2022-11-17T10:59:30.164Z,-1.21
2022-11-17T11:01:57.033Z,-1.21
2022-11-17T11:04:36.780Z,-1.20
2022-11-17T11:07:13.315Z,-1.21
2022-11-17T11:09:50.592Z,-1.24
2022-11-17T11:12:21.704Z,-1.24
2022-11-17T11:14:51.252Z,-1.25
2022-11-17T11:17:18.077Z,-1.26
2022-11-17T11:19:47.164Z,-1.26
2022-11-17T11:22:33.034Z,-1.28
2022-11-17T11:25:25.376Z,-1.30
2022-11-17T11:28:01.637Z,-1.31
2022-11-17T11:30:28.416Z,-1.32
2022-11-17T11:33:14.088Z,-1.34
2022-11-17T11:36:11.312Z,-1.36
2022-11-17T11:38:47.779Z,-1.37
2022-11-17T11:41:35.834Z,-1.38
2022-11-17T11:44:02.822Z,-1.38
2022-11-17T11:46:48.367Z,-1.39
2022-11-17T11:49:40.487Z,-1.39
2022-11-17T11:52:11.980Z,-1.37
2022-11-17T11:54:51.432Z,-1.39
2022-11-17T11:57:18.785Z,-1.32
2022-11-17T12:00:20.900Z,-1.32
2022-11-17T12:02:52.919Z,-1.33
2022-11-17T12:05:19.683Z,-1.35
2022-11-17T12:08:04.661Z,-1.35
2022-11-17T12:10:37.899Z,-1.36
2022-11-17T12:13:04.668Z,-1.35
2022-11-17T12:15:33.229Z,-1.34
2022-11-17T12:18:26.341Z,-1.34
2022-11-17T12:21:03.723Z,-1.35
2022-11-17T12:23:38.368Z,-1.34
2022-11-17T12:26:05.099Z,-1.34
2022-11-17T12:28:39.160Z,-1.35
2022-11-17T12:31:10.107Z,-1.37
2022-11-17T12:34:06.599Z,-1.37
2022-11-17T12:36:34.140Z,-1.35
2022-11-17T12:39:06.972Z,-1.33
2022-11-17T12:41:49.232Z,-1.33
2022-11-17T12:44:37.935Z,-1.33
2022-11-17T12:47:26.135Z,-1.33
2022-11-17T12:50:17.411Z,-1.30
2022-11-17T12:53:06.109Z,-1.29
2022-11-17T12:55:32.839Z,-1.27
2022-11-17T12:58:19.868Z,-1.30
2022-11-17T13:01:05.637Z,-1.34
2022-11-17T13:03:54.648Z,-1.37
2022-11-17T13:06:35.402Z,-1.38
2022-11-17T13:09:08.024Z,-1.38
2022-11-17T13:11:35.288Z,-1.38
2022-11-17T13:14:11.859Z,-1.42
2022-11-17T13:17:10.104Z,-1.37
2022-11-17T13:19:41.276Z,-1.37
2022-11-17T13:22:11.075Z,-1.37
2022-11-17T13:24:39.230Z,-1.36
2022-11-17T13:27:07.513Z,-1.35
2022-11-17T13:29:34.381Z,-1.40
2022-11-17T13:32:17.260Z,-1.37
2022-11-17T13:34:52.432Z,-1.38
2022-11-17T13:37:29.007Z,-1.42
2022-11-17T13:40:03.405Z,-1.41
2022-11-17T13:42:31.574Z,-1.42
2022-11-17T13:45:00.372Z,-1.44
2022-11-17T13:48:50.152Z,-1.45
2022-11-17T13:51:28.845Z,-1.50
2022-11-17T13:54:14.151Z,-1.56
2022-11-17T13:56:51.382Z,-1.57
2022-11-17T13:59:18.201Z,-1.61
2022-11-17T14:01:44.954Z,-1.62
2022-11-17T14:04:22.911Z,-1.63
2022-11-17T14:06:56.490Z,-1.65
2022-11-17T14:09:23.951Z,-1.66
2022-11-17T14:11:50.758Z,-1.67
2022-11-17T14:14:19.426Z,-1.67
2022-11-17T14:16:46.210Z,-1.65
2022-11-17T14:19:15.947Z,-1.64
2022-11-17T14:22:24.766Z,-1.62
2022-11-17T14:24:56.283Z,-1.60
2022-11-17T14:27:29.651Z,-1.58
2022-11-17T14:29:56.376Z,-1.57
2022-11-17T14:32:23.111Z,-1.59
2022-11-17T14:34:49.844Z,-1.61
2022-11-17T14:37:16.851Z,-1.63
2022-11-17T14:39:43.596Z,-1.63
2022-11-17T14:42:11.204Z,-1.64
2022-11-17T14:44:37.966Z,-1.69
2022-11-17T14:47:04.648Z,-1.64
2022-11-17T14:49:31.423Z,-1.67
2022-11-17T14:51:59.321Z,-1.65
2022-11-17T14:54:26.227Z,-1.65
2022-11-17T14:56:52.836Z,-1.66
2022-11-17T14:59:19.597Z,-1.66
2022-11-17T15:01:46.443Z,-1.65
2022-11-17T15:04:43.007Z,-1.67
2022-11-17T15:07:00.564Z,-1.69
2022-11-17T15:09:27.355Z,-1.64
2022-11-17T15:11:54.354Z,-1.65
2022-11-17T15:14:21.143Z,-1.67
2022-11-17T15:16:47.892Z,-1.73
2022-11-17T15:19:14.715Z,-1.69
2022-11-17T15:21:41.538Z,-1.68
2022-11-17T15:24:09.271Z,-1.66
2022-11-17T15:26:36.180Z,-1.65
2022-11-17T15:29:02.813Z,-1.65
2022-11-17T15:31:29.799Z,-1.63
2022-11-17T15:33:56.606Z,-1.74
2022-11-17T15:36:23.298Z,-1.65
2022-11-17T15:38:50.138Z,-1.71
2022-11-17T15:41:16.949Z,-1.66
2022-11-17T15:43:44.211Z,-1.67
2022-11-17T15:46:12.689Z,-1.68
2022-11-17T15:48:42.293Z,-1.68
2022-11-17T15:51:16.291Z,-1.67
2022-11-17T15:53:44.061Z,-1.66
2022-11-17T15:56:20.063Z,-1.65
2022-11-17T15:58:47.677Z,-1.66
2022-11-17T16:01:15.397Z,-1.68
2022-11-17T16:03:43.710Z,-1.70
2022-11-17T16:06:10.945Z,-1.72
2022-11-17T16:08:38.041Z,-1.73
2022-11-17T16:11:05.053Z,-1.72
2022-11-17T16:13:31.909Z,-1.73
2022-11-17T16:15:58.735Z,-1.74
2022-11-17T16:18:25.629Z,-1.77
2022-11-17T16:20:52.470Z,-1.80
2022-11-17T16:23:19.281Z,-1.82
2022-11-17T16:25:47.770Z,-1.84
2022-11-17T16:28:14.758Z,-1.85
2022-11-17T16:30:41.621Z,-1.84
2022-11-17T16:33:12.228Z,-1.83
2022-11-17T16:35:40.457Z,-1.81
2022-11-17T16:38:08.137Z,-1.80
2022-11-17T16:40:37.494Z,-1.79
2022-11-17T16:43:04.301Z,-1.78
2022-11-17T16:45:31.073Z,-1.81
2022-11-17T16:47:59.006Z,-1.82
2022-11-17T16:50:25.928Z,-1.83
2022-11-17T16:52:52.690Z,-1.89
2022-11-17T16:55:19.465Z,-1.86
2022-11-17T16:57:46.218Z,-1.87
2022-11-17T17:00:15.037Z,-1.88
2022-11-17T17:02:41.896Z,-1.90
2022-11-17T17:05:10.131Z,-1.92
2022-11-17T17:07:36.937Z,-1.92
2022-11-17T17:10:03.668Z,-1.93
2022-11-17T17:12:30.537Z,-1.94
2022-11-17T17:14:57.146Z,-1.95
2022-11-17T17:17:23.918Z,-1.95
2022-11-17T17:19:50.637Z,-1.96
2022-11-17T17:22:17.368Z,-1.95
2022-11-17T17:24:44.106Z,-1.95
2022-11-17T17:27:10.905Z,-1.94
2022-11-17T17:29:37.674Z,-1.95
2022-11-17T17:32:04.524Z,-2.00
2022-11-17T17:34:31.386Z,-1.99
2022-11-17T17:36:58.006Z,-2.00
2022-11-17T17:39:24.770Z,-2.03
2022-11-17T17:41:51.451Z,-2.04
2022-11-17T17:44:18.744Z,-2.07
2022-11-17T17:46:46.143Z,-2.07
2022-11-17T17:49:12.973Z,-2.08
2022-11-17T17:51:41.646Z,-2.08
2022-11-17T17:54:10.261Z,-2.07
2022-11-17T17:56:37.032Z,-2.07
2022-11-17T17:59:03.772Z,-2.04
2022-11-17T18:01:33.253Z,-2.03
2022-11-17T18:04:09.086Z,-2.03
2022-11-17T18:06:40.768Z,-2.05
2022-11-17T18:09:08.556Z,-2.07
2022-11-17T18:11:35.756Z,-2.09
2022-11-17T18:14:02.723Z,-2.09
2022-11-17T18:16:30.139Z,-2.10
2022-11-17T18:18:58.345Z,-2.10
2022-11-17T18:21:25.336Z,-2.11
2022-11-17T18:23:53.480Z,-2.12
2022-11-17T18:26:21.905Z,-2.08
2022-11-17T18:28:58.922Z,-2.08
2022-11-17T18:31:27.284Z,-2.09
2022-11-17T18:33:55.852Z,-2.11
2022-11-17T18:36:22.808Z,-2.09
2022-11-17T18:38:52.068Z,-2.12
2022-11-17T18:41:19.757Z,-2.07
2022-11-17T18:43:46.673Z,-2.04
2022-11-17T18:46:18.569Z,-2.06
2022-11-17T18:48:46.334Z,-2.04
2022-11-17T18:51:21.876Z,-2.06
2022-11-17T18:53:49.381Z,-2.09
2022-11-17T18:56:16.976Z,-2.13
2022-11-17T18:58:43.879Z,-2.18
2022-11-17T19:01:15.208Z,-2.21
2022-11-17T19:03:43.327Z,-2.20
2022-11-17T19:06:10.324Z,-2.21
2022-11-17T19:08:37.190Z,-2.21
2022-11-17T19:11:06.312Z,-2.22
2022-11-17T19:13:34.396Z,-2.23
2022-11-17T19:16:15.057Z,-2.24
2022-11-17T19:18:42.149Z,-2.24
2022-11-17T19:21:10.654Z,-2.22
2022-11-17T19:23:39.069Z,-2.21
2022-11-17T19:26:06.893Z,-2.21
2022-11-17T19:28:33.837Z,-2.22
2022-11-17T19:31:01.705Z,-2.25
2022-11-17T19:33:32.327Z,-2.26
2022-11-17T19:36:06.281Z,-2.27
2022-11-17T19:38:33.924Z,-2.28
2022-11-17T19:41:10.083Z,-2.29
2022-11-17T19:43:43.452Z,-2.28
2022-11-17T19:46:13.445Z,-2.26
2022-11-17T19:48:40.637Z,-2.26
2022-11-17T19:51:13.673Z,-2.27
2022-11-17T19:53:40.765Z,-2.27
2022-11-17T19:56:08.289Z,-2.29
2022-11-17T19:58:35.068Z,-2.22
2022-11-17T20:01:12.024Z,-2.21
2022-11-17T20:03:38.987Z,-2.20
2022-11-17T20:06:05.995Z,-2.22
2022-11-17T20:08:32.745Z,-2.25
2022-11-17T20:11:10.379Z,-2.29
2022-11-17T20:13:37.300Z,-2.31
2022-11-17T20:16:11.484Z,-2.32
2022-11-17T20:18:39.160Z,-2.31
2022-11-17T20:21:06.423Z,-2.29
2022-11-17T20:23:36.822Z,-2.27
2022-11-17T20:26:05.272Z,-2.27
2022-11-17T20:28:33.907Z,-2.26
2022-11-17T20:31:09.894Z,-2.28
2022-11-17T20:33:38.005Z,-2.31
2022-11-17T20:36:05.630Z,-2.30
2022-11-17T20:38:32.404Z,-2.30
2022-11-17T20:40:59.451Z,-2.29
2022-11-17T20:43:26.831Z,-2.30
2022-11-17T20:45:54.056Z,-2.30
2022-11-17T20:48:21.243Z,-2.32
2022-11-17T20:51:10.884Z,-2.34
2022-11-17T20:53:37.739Z,-2.35
2022-11-17T20:56:05.157Z,-2.38
2022-11-17T20:58:32.118Z,-2.34
2022-11-17T21:00:59.025Z,-2.33
2022-11-17T21:03:25.992Z,-2.34
2022-11-17T21:05:59.749Z,-2.34
2022-11-17T21:08:27.384Z,-2.38
2022-11-17T21:10:57.972Z,-2.39
2022-11-17T21:13:25.118Z,-2.41
2022-11-17T21:16:09.612Z,-2.42
2022-11-17T21:18:36.983Z,-2.45
2022-11-17T21:21:08.673Z,-2.45
2022-11-17T21:23:36.609Z,-2.45
2022-11-17T21:26:05.234Z,-2.45
2022-11-17T21:28:32.170Z,-2.45
2022-11-17T21:31:03.989Z,-2.45
2022-11-17T21:33:31.048Z,-2.47
2022-11-17T21:36:01.970Z,-2.47
2022-11-17T21:38:29.540Z,-2.46
2022-11-17T21:41:01.635Z,-2.47
2022-11-17T21:43:28.712Z,-2.48
2022-11-17T21:45:55.489Z,-2.47
2022-11-17T21:48:22.137Z,-2.47
2022-11-17T21:50:48.906Z,-2.52
2022-11-17T21:53:15.534Z,-2.52
2022-11-17T21:55:42.441Z,-2.51
2022-11-17T21:58:09.064Z,-2.50
2022-11-17T22:00:35.789Z,-2.52
2022-11-17T22:03:02.571Z,-2.53
2022-11-17T22:05:29.397Z,-2.55
2022-11-17T22:07:56.060Z,-2.56
2022-11-17T22:10:22.808Z,-2.57
2022-11-17T22:12:49.515Z,-2.59
2022-11-17T22:15:16.237Z,-2.61
2022-11-17T22:17:42.990Z,-2.64
2022-11-17T22:20:10.154Z,-2.65
2022-11-17T22:22:36.981Z,-2.66
2022-11-17T22:25:29.733Z,-2.67
2022-11-17T22:27:50.564Z,-2.69
2022-11-17T22:30:17.360Z,-2.70
2022-11-17T22:32:45.392Z,-2.72
2022-11-17T22:35:12.326Z,-2.73
2022-11-17T22:37:38.967Z,-2.74
2022-11-17T22:40:06.225Z,-2.75
2022-11-17T22:42:32.953Z,-2.78
2022-11-17T22:44:59.683Z,-2.81
2022-11-17T22:47:26.473Z,-2.83
2022-11-17T22:49:53.129Z,-2.85
2022-11-17T22:52:19.857Z,-2.86
2022-11-17T22:54:46.583Z,-2.87
2022-11-17T22:57:13.266Z,-2.87
2022-11-17T22:59:40.066Z,-2.86
2022-11-17T23:02:06.667Z,-2.85
2022-11-17T23:04:33.443Z,-2.84
2022-11-17T23:07:00.232Z,-2.83
2022-11-17T23:09:27.012Z,-2.84
2022-11-17T23:11:53.766Z,-2.82
2022-11-17T23:14:20.473Z,-2.83
2022-11-17T23:16:47.194Z,-2.84
2022-11-17T23:19:14.045Z,-2.86
2022-11-17T23:21:41.033Z,-2.89
2022-11-17T23:24:09.907Z,-2.91
2022-11-17T23:26:36.726Z,-2.93
2022-11-17T23:29:03.430Z,-2.95
2022-11-17T23:31:30.208Z,-2.94
2022-11-17T23:33:56.803Z,-2.94
2022-11-17T23:36:23.567Z,-2.95
2022-11-17T23:38:50.628Z,-2.97
2022-11-17T23:41:19.227Z,-2.97
2022-11-17T23:43:46.277Z,-2.96
2022-11-17T23:46:15.079Z,-2.95
2022-11-17T23:48:42.202Z,-2.93
2022-11-17T23:51:13.660Z,-2.91
2022-11-17T23:53:40.605Z,-2.91
2022-11-17T23:56:07.775Z,-2.92
2022-11-17T23:58:34.614Z,-2.92
